Time,TemperatureF,DewpointF,PressureIn,WindDirection,WindDirectionDegrees,WindSpeedMPH,WindSpeedGustMPH,Humidity,HourlyPrecipIn,Conditions,Clouds,dailyrainin,SolarRadiationWatts/m^2,SoftwareType,DateUTC
2013-09-22 00:22:00,46.0,44.0,-100.00,ESE,117,9.0,20.0,93,0.14,,,0.43,0.000000,,2013-09-22 08:22:00,
2013-09-22 00:32:00,46.0,44.0,-100.00,ESE,117,9.0,20.0,93,0.14,,,0.43,0.000000,,2013-09-22 08:32:00,
2013-09-22 00:42:00,46.0,44.0,-100.00,ESE,117,9.0,20.0,93,0.14,,,0.43,0.000000,,2013-09-22 08:42:00,
2013-09-22 00:52:00,46.0,44.0,-100.00,ESE,117,9.0,20.0,93,0.14,,,0.43,0.000000,,2013-09-22 08:52:00,
2013-09-22 01:21:00,46.0,44.0,-100.00,SE,133,9.0,19.0,92,0.05,,,0.47,0.000000,,2013-09-22 09:21:00,
2013-09-22 01:33:00,46.0,44.0,-100.00,SE,133,9.0,19.0,92,0.05,,,0.47,0.000000,,2013-09-22 09:33:00,
2013-09-22 01:43:00,46.0,44.0,-100.00,SE,133,9.0,19.0,92,0.05,,,0.47,0.000000,,2013-09-22 09:43:00,
2013-09-22 01:53:00,46.0,44.0,-100.00,SE,133,9.0,19.0,92,0.05,,,0.47,0.000000,,2013-09-22 09:53:00,
2013-09-22 02:23:00,47.0,43.0,-100.00,SE,130,7.0,20.0,87,0.00,,,0.45,0.000000,,2013-09-22 10:23:00,
2013-09-22 02:33:00,47.0,43.0,-100.00,SE,130,7.0,20.0,87,0.00,,,0.45,0.000000,,2013-09-22 10:33:00,
2013-09-22 02:44:00,47.0,43.0,-100.00,SE,130,7.0,20.0,87,0.00,,,0.45,0.000000,,2013-09-22 10:44:00,
2013-09-22 02:53:00,47.0,43.0,-100.00,SE,130,7.0,20.0,87,0.00,,,0.45,0.000000,,2013-09-22 10:53:00,
2013-09-22 03:22:00,47.0,42.0,-100.00,SE,127,9.0,19.0,84,0.00,,,0.44,0.000000,,2013-09-22 11:22:00,
2013-09-22 03:33:00,47.0,42.0,-100.00,SE,127,9.0,19.0,84,0.00,,,0.44,0.000000,,2013-09-22 11:33:00,
2013-09-22 03:42:00,47.0,42.0,-100.00,SE,127,9.0,19.0,84,0.00,,,0.44,0.000000,,2013-09-22 11:42:00,
2013-09-22 03:52:00,47.0,42.0,-100.00,SE,127,9.0,19.0,84,0.00,,,0.44,0.000000,,2013-09-22 11:52:00,
2013-09-22 04:22:00,48.0,42.0,-100.00,SE,124,6.0,16.0,81,0.00,,,0.44,0.000000,,2013-09-22 12:22:00,
2013-09-22 04:32:00,48.0,42.0,-100.00,SE,124,6.0,16.0,81,0.00,,,0.44,0.000000,,2013-09-22 12:32:00,
2013-09-22 04:42:00,48.0,42.0,-100.00,SE,124,6.0,16.0,81,0.00,,,0.44,0.000000,,2013-09-22 12:42:00,
2013-09-22 04:52:00,48.0,42.0,-100.00,SE,124,6.0,16.0,81,0.00,,,0.44,0.000000,,2013-09-22 12:52:00,
2013-09-22 05:21:00,48.0,42.0,-100.00,ESE,103,7.0,16.0,81,0.00,,,0.44,0.000000,,2013-09-22 13:21:00,
2013-09-22 05:32:00,48.0,42.0,-100.00,ESE,103,7.0,16.0,81,0.00,,,0.44,0.000000,,2013-09-22 13:32:00,
2013-09-22 05:42:00,48.0,42.0,-100.00,ESE,103,7.0,16.0,81,0.00,,,0.44,0.000000,,2013-09-22 13:42:00,
2013-09-22 05:52:00,48.0,42.0,-100.00,ESE,103,7.0,16.0,81,0.00,,,0.44,0.000000,,2013-09-22 13:52:00,
2013-09-22 06:22:00,48.0,42.0,-100.00,ESE,122,5.0,13.0,80,0.00,,,0.44,0.000000,,2013-09-22 14:22:00,
2013-09-22 06:32:00,48.0,42.0,-100.00,ESE,122,5.0,13.0,80,0.00,,,0.44,0.000000,,2013-09-22 14:32:00,
2013-09-22 06:42:00,48.0,42.0,-100.00,ESE,122,5.0,13.0,80,0.00,,,0.44,0.000000,,2013-09-22 14:42:00,
2013-09-22 06:52:00,48.0,42.0,-100.00,ESE,122,5.0,13.0,80,0.00,,,0.44,0.000000,,2013-09-22 14:52:00,
2013-09-22 07:23:00,49.0,42.0,-100.00,SE,140,6.0,16.0,78,0.00,,,0.44,2.000000,,2013-09-22 15:23:00,
2013-09-22 07:34:00,49.0,42.0,-100.00,SE,140,6.0,16.0,78,0.00,,,0.44,2.000000,,2013-09-22 15:34:00,
2013-09-22 07:44:00,49.0,42.0,-100.00,SE,140,6.0,16.0,78,0.00,,,0.44,2.000000,,2013-09-22 15:44:00,
2013-09-22 07:54:00,49.0,42.0,-100.00,SE,140,6.0,16.0,78,0.00,,,0.44,2.000000,,2013-09-22 15:54:00,
2013-09-22 08:24:00,49.0,44.0,-100.00,ESE,117,8.0,14.0,83,0.00,,,0.44,17.000000,,2013-09-22 16:24:00,
2013-09-22 08:33:00,49.0,44.0,-100.00,ESE,117,8.0,14.0,83,0.00,,,0.44,17.000000,,2013-09-22 16:33:00,
2013-09-22 08:43:00,49.0,44.0,-100.00,ESE,117,8.0,14.0,83,0.00,,,0.44,17.000000,,2013-09-22 16:43:00,
2013-09-22 08:54:00,49.0,44.0,-100.00,ESE,117,8.0,14.0,83,0.00,,,0.44,17.000000,,2013-09-22 16:54:00,
2013-09-22 09:23:00,48.0,45.0,-100.00,ESE,122,8.0,13.0,91,0.01,,,0.45,56.000000,,2013-09-22 17:23:00,
2013-09-22 09:34:00,48.0,45.0,-100.00,ESE,122,8.0,13.0,91,0.01,,,0.45,56.000000,,2013-09-22 17:34:00,
2013-09-22 09:42:00,48.0,45.0,-100.00,ESE,122,8.0,13.0,91,0.01,,,0.45,56.000000,,2013-09-22 17:42:00,
2013-09-22 09:53:00,48.0,45.0,-100.00,ESE,122,8.0,13.0,91,0.01,,,0.45,56.000000,,2013-09-22 17:53:00,
2013-09-22 10:22:00,49.0,46.0,-100.00,ESE,120,8.0,15.0,91,0.00,,,0.45,100.000000,,2013-09-22 18:22:00,
2013-09-22 10:32:00,49.0,46.0,-100.00,ESE,120,8.0,15.0,91,0.00,,,0.45,100.000000,,2013-09-22 18:32:00,
2013-09-22 10:42:00,49.0,46.0,-100.00,ESE,120,8.0,15.0,91,0.00,,,0.45,100.000000,,2013-09-22 18:42:00,
2013-09-22 10:52:00,49.0,46.0,-100.00,ESE,120,8.0,15.0,91,0.00,,,0.45,100.000000,,2013-09-22 18:52:00,
2013-09-22 11:22:00,50.0,48.0,-100.00,SE,124,10.0,19.0,92,0.00,,,0.45,178.000000,,2013-09-22 19:22:00,
2013-09-22 11:32:00,50.0,48.0,-100.00,SE,124,10.0,19.0,92,0.00,,,0.45,178.000000,,2013-09-22 19:32:00,
2013-09-22 11:42:00,50.0,48.0,-100.00,SE,124,10.0,19.0,92,0.00,,,0.45,178.000000,,2013-09-22 19:42:00,
2013-09-22 11:52:00,50.0,48.0,-100.00,SE,124,10.0,19.0,92,0.00,,,0.45,178.000000,,2013-09-22 19:52:00,
2013-09-22 12:22:00,51.0,48.0,-100.00,SE,126,11.0,23.0,88,0.00,,,0.45,296.000000,,2013-09-22 20:22:00,
2013-09-22 12:33:00,51.0,48.0,-100.00,SE,126,11.0,23.0,88,0.00,,,0.45,296.000000,,2013-09-22 20:33:00,
2013-09-22 12:42:00,51.0,48.0,-100.00,SE,126,11.0,23.0,88,0.00,,,0.45,296.000000,,2013-09-22 20:42:00,
2013-09-22 12:52:00,51.0,48.0,-100.00,SE,126,11.0,23.0,88,0.00,,,0.45,296.000000,,2013-09-22 20:52:00,
2013-09-22 13:23:00,50.0,47.0,-100.00,SE,126,10.0,19.0,91,0.02,,,0.47,175.000000,,2013-09-22 21:23:00,
2013-09-22 13:34:00,50.0,47.0,-100.00,SE,126,10.0,19.0,91,0.02,,,0.47,175.000000,,2013-09-22 21:34:00,
2013-09-22 13:44:00,50.0,47.0,-100.00,SE,126,10.0,19.0,91,0.02,,,0.47,175.000000,,2013-09-22 21:44:00,
2013-09-22 13:54:00,50.0,47.0,-100.00,SE,126,10.0,19.0,91,0.02,,,0.47,175.000000,,2013-09-22 21:54:00,
2013-09-22 14:24:00,50.0,48.0,-100.00,SE,132,8.0,19.0,92,0.01,,,0.48,159.000000,,2013-09-22 22:24:00,
2013-09-22 14:34:00,50.0,48.0,-100.00,SE,132,8.0,19.0,92,0.01,,,0.48,159.000000,,2013-09-22 22:34:00,
2013-09-22 14:43:00,50.0,48.0,-100.00,SE,132,8.0,19.0,92,0.01,,,0.48,159.000000,,2013-09-22 22:43:00,
2013-09-22 14:53:00,50.0,48.0,-100.00,SE,132,8.0,19.0,92,0.01,,,0.48,159.000000,,2013-09-22 22:53:00,
2013-09-22 15:22:00,50.0,48.0,-100.00,SE,127,10.0,21.0,93,0.04,,,0.49,136.000000,,2013-09-22 23:22:00,
2013-09-22 15:34:00,50.0,48.0,-100.00,SE,127,10.0,21.0,93,0.04,,,0.49,136.000000,,2013-09-22 23:34:00,
2013-09-22 15:42:00,50.0,48.0,-100.00,SE,127,10.0,21.0,93,0.04,,,0.49,136.000000,,2013-09-22 23:42:00,
2013-09-22 15:52:00,50.0,48.0,-100.00,SE,127,10.0,21.0,93,0.04,,,0.49,136.000000,,2013-09-22 23:52:00,
2013-09-22 16:23:00,49.0,47.0,-100.00,South,173,3.0,16.0,93,0.15,,,0.62,60.000000,,2013-09-23 00:23:00,
2013-09-22 16:32:00,49.0,47.0,-100.00,South,173,3.0,16.0,93,0.15,,,0.62,60.000000,,2013-09-23 00:32:00,
2013-09-22 16:42:00,49.0,47.0,-100.00,South,173,3.0,16.0,93,0.15,,,0.62,60.000000,,2013-09-23 00:42:00,
2013-09-22 16:53:00,49.0,47.0,-100.00,South,173,3.0,16.0,93,0.15,,,0.62,60.000000,,2013-09-23 00:53:00,
2013-09-22 17:22:00,50.0,49.0,-100.00,SE,131,6.0,10.0,96,0.05,,,0.65,50.000000,,2013-09-23 01:22:00,
2013-09-22 17:32:00,50.0,49.0,-100.00,SE,131,6.0,10.0,96,0.05,,,0.65,50.000000,,2013-09-23 01:32:00,
2013-09-22 17:43:00,50.0,49.0,-100.00,SE,131,6.0,10.0,96,0.05,,,0.65,50.000000,,2013-09-23 01:43:00,
2013-09-22 17:52:00,50.0,49.0,-100.00,SE,131,6.0,10.0,96,0.05,,,0.65,50.000000,,2013-09-23 01:52:00,
2013-09-22 18:22:00,50.0,49.0,-100.00,SE,128,4.0,9.0,97,0.03,,,0.68,28.000000,,2013-09-23 02:22:00,
2013-09-22 18:32:00,50.0,49.0,-100.00,SE,128,4.0,9.0,97,0.03,,,0.68,28.000000,,2013-09-23 02:32:00,
2013-09-22 18:42:00,50.0,49.0,-100.00,SE,128,4.0,9.0,97,0.03,,,0.68,28.000000,,2013-09-23 02:42:00,
2013-09-22 18:52:00,50.0,49.0,-100.00,SE,128,4.0,9.0,97,0.03,,,0.68,28.000000,,2013-09-23 02:52:00,
2013-09-22 19:22:00,49.0,48.0,-100.00,ESE,123,6.0,9.0,97,0.01,,,0.67,8.000000,,2013-09-23 03:22:00,
2013-09-22 19:34:00,49.0,48.0,-100.00,ESE,123,6.0,9.0,97,0.01,,,0.67,8.000000,,2013-09-23 03:34:00,
2013-09-22 19:44:00,49.0,48.0,-100.00,ESE,123,6.0,9.0,97,0.01,,,0.67,8.000000,,2013-09-23 03:44:00,
2013-09-22 19:54:00,49.0,48.0,-100.00,ESE,123,6.0,9.0,97,0.01,,,0.67,8.000000,,2013-09-23 03:54:00,
2013-09-22 20:24:00,49.0,48.0,-100.00,SE,137,6.0,11.0,97,0.02,,,0.69,0.000000,,2013-09-23 04:24:00,
2013-09-22 20:33:00,49.0,48.0,-100.00,SE,137,6.0,11.0,97,0.02,,,0.69,0.000000,,2013-09-23 04:33:00,
2013-09-22 20:43:00,49.0,48.0,-100.00,SE,137,6.0,11.0,97,0.02,,,0.69,0.000000,,2013-09-23 04:43:00,
2013-09-22 20:53:00,49.0,48.0,-100.00,SE,137,6.0,11.0,97,0.02,,,0.69,0.000000,,2013-09-23 04:53:00,
2013-09-22 21:22:00,49.0,48.0,-100.00,SE,128,6.0,11.0,97,0.05,,,0.69,0.000000,,2013-09-23 05:22:00,
2013-09-22 21:34:00,49.0,48.0,-100.00,SE,128,6.0,11.0,97,0.05,,,0.69,0.000000,,2013-09-23 05:34:00,
2013-09-22 21:43:00,49.0,48.0,-100.00,SE,128,6.0,11.0,97,0.05,,,0.69,0.000000,,2013-09-23 05:43:00,
2013-09-22 21:53:00,49.0,48.0,-100.00,SE,128,6.0,11.0,97,0.05,,,0.69,0.000000,,2013-09-23 05:53:00,
2013-09-22 22:22:00,48.0,47.0,-100.00,ESE,123,6.0,11.0,96,0.02,,,0.67,0.000000,,2013-09-23 06:22:00,
2013-09-22 22:32:00,48.0,47.0,-100.00,ESE,123,6.0,11.0,96,0.02,,,0.67,0.000000,,2013-09-23 06:32:00,
2013-09-22 22:42:00,48.0,47.0,-100.00,ESE,123,6.0,11.0,96,0.02,,,0.67,0.000000,,2013-09-23 06:42:00,
2013-09-22 22:52:00,48.0,47.0,-100.00,ESE,123,6.0,11.0,96,0.02,,,0.67,0.000000,,2013-09-23 06:52:00,
2013-09-22 23:22:00,47.0,46.0,-100.00,ESE,110,6.0,13.0,96,0.13,,,0.73,0.000000,,2013-09-23 07:22:00,
2013-09-22 23:32:00,47.0,46.0,-100.00,ESE,110,6.0,13.0,96,0.13,,,0.73,0.000000,,2013-09-23 07:32:00,
2013-09-22 23:42:00,47.0,46.0,-100.00,ESE,110,6.0,13.0,96,0.13,,,0.73,0.000000,,2013-09-23 07:42:00,
2013-09-22 23:52:00,47.0,46.0,-100.00,ESE,110,6.0,13.0,96,0.13,,,0.73,0.000000,,2013-09-23 07:52:00,